createdAt,value
2023-01-25T00:02:17.794Z,15.50
2023-01-25T00:04:46.282Z,15.00
2023-01-25T00:07:14.601Z,16.00
2023-01-25T00:09:42.920Z,18.40
2023-01-25T00:12:11.333Z,20.10
2023-01-25T00:14:39.540Z,17.30
2023-01-25T00:17:07.818Z,15.80
2023-01-25T00:19:36.227Z,17.00
2023-01-25T00:22:04.433Z,16.40
2023-01-25T00:24:32.733Z,18.50
2023-01-25T00:27:02.471Z,17.20
2023-01-25T00:29:32.882Z,16.40
2023-01-25T00:32:01.356Z,16.80
2023-01-25T00:34:43.977Z,16.00
2023-01-25T00:37:28.663Z,17.10
2023-01-25T00:39:58.970Z,18.00
2023-01-25T00:42:27.366Z,16.40
2023-01-25T00:44:55.699Z,17.50
2023-01-25T00:47:24.027Z,16.80
2023-01-25T00:49:52.441Z,17.30
2023-01-25T00:52:22.678Z,15.90
2023-01-25T00:54:51.119Z,15.90
2023-01-25T00:57:19.453Z,14.60
2023-01-25T00:59:48.039Z,15.60
2023-01-25T01:02:16.511Z,17.00
2023-01-25T01:04:44.881Z,17.20
2023-01-25T01:07:15.469Z,15.70
2023-01-25T01:09:43.869Z,16.70
2023-01-25T01:12:12.263Z,14.30
2023-01-25T01:14:40.575Z,13.40
2023-01-25T01:17:08.946Z,15.60
2023-01-25T01:19:37.323Z,13.90
2023-01-25T01:22:05.645Z,14.40
2023-01-25T01:24:34.004Z,13.60
2023-01-25T01:27:04.269Z,15.20
2023-01-25T01:29:32.614Z,15.60
2023-01-25T01:32:01.037Z,14.10
2023-01-25T01:34:29.462Z,14.90
2023-01-25T01:36:57.804Z,14.80
2023-01-25T01:39:26.232Z,13.90
2023-01-25T01:41:54.567Z,15.40
2023-01-25T01:44:44.893Z,14.90
2023-01-25T01:47:27.622Z,11.70
2023-01-25T01:50:04.775Z,10.90
2023-01-25T01:52:37.392Z,11.30
2023-01-25T01:55:11.951Z,11.40
2023-01-25T01:58:00.365Z,9.90
2023-01-25T02:00:34.630Z,10.30
2023-01-25T02:03:03.012Z,9.70
2023-01-25T02:05:36.730Z,9.20
2023-01-25T02:08:07.163Z,10.00
2023-01-25T02:10:37.052Z,9.10
2023-01-25T02:13:05.370Z,11.30
2023-01-25T02:15:51.100Z,9.70
2023-01-25T02:18:20.305Z,9.80
2023-01-25T02:20:52.879Z,11.00
2023-01-25T02:24:09.803Z,9.70
2023-01-25T02:26:40.635Z,10.40
2023-01-25T02:29:11.049Z,9.70
2023-01-25T02:31:39.640Z,8.40
2023-01-25T02:34:08.208Z,8.60
2023-01-25T02:36:36.639Z,8.20
2023-01-25T02:39:13.202Z,9.30
2023-01-25T02:41:44.047Z,10.70
2023-01-25T02:44:20.571Z,9.00
2023-01-25T02:46:49.004Z,9.50
2023-01-25T02:49:17.797Z,11.10
2023-01-25T02:51:57.561Z,10.50
2023-01-25T02:54:27.072Z,10.30
2023-01-25T02:56:56.665Z,10.90
2023-01-25T02:59:26.301Z,11.50
2023-01-25T03:01:56.730Z,10.40
2023-01-25T03:04:25.065Z,11.50
2023-01-25T03:06:53.542Z,10.20
2023-01-25T03:09:21.906Z,10.60
2023-01-25T03:11:50.892Z,10.10
2023-01-25T03:14:20.170Z,10.30
2023-01-25T03:16:48.523Z,10.90
2023-01-25T03:19:17.333Z,10.20
2023-01-25T03:21:46.928Z,10.70
2023-01-25T03:24:15.509Z,9.80
2023-01-25T03:27:06.305Z,10.70
2023-01-25T03:29:42.998Z,10.40
2023-01-25T03:32:15.246Z,9.50
2023-01-25T03:34:43.656Z,9.30
2023-01-25T03:37:12.145Z,10.10
2023-01-25T03:39:41.458Z,9.90
2023-01-25T03:42:10.557Z,10.80
2023-01-25T03:44:38.950Z,10.10
2023-01-25T03:47:07.866Z,13.70
2023-01-25T03:49:36.535Z,16.00
2023-01-25T03:52:05.484Z,14.30
2023-01-25T03:54:38.969Z,20.50
2023-01-25T03:57:08.435Z,19.10
2023-01-25T03:59:44.310Z,21.70
2023-01-25T04:02:14.882Z,21.90
2023-01-25T04:04:43.806Z,21.20
2023-01-25T04:07:12.283Z,21.30
2023-01-25T04:09:41.235Z,21.50
2023-01-25T04:12:10.238Z,21.70
2023-01-25T04:14:44.593Z,23.20
2023-01-25T04:17:24.206Z,21.90
2023-01-25T04:19:55.813Z,22.20
2023-01-25T04:22:27.873Z,23.10
2023-01-25T04:24:57.506Z,23.20
2023-01-25T04:27:25.997Z,22.90
2023-01-25T04:30:02.865Z,22.60
2023-01-25T04:32:32.068Z,19.80
2023-01-25T04:35:01.035Z,21.40
2023-01-25T04:37:30.391Z,19.30
2023-01-25T04:40:00.204Z,19.90
2023-01-25T04:42:30.867Z,20.50
2023-01-25T04:45:00.135Z,21.50
2023-01-25T04:47:28.868Z,20.80
2023-01-25T04:49:57.739Z,20.40
2023-01-25T04:52:27.857Z,18.60
2023-01-25T04:54:56.614Z,19.70
2023-01-25T04:57:25.064Z,21.60
2023-01-25T04:59:54.078Z,20.20
2023-01-25T05:02:23.812Z,20.50
2023-01-25T05:04:52.245Z,20.50
2023-01-25T05:07:21.188Z,18.30
2023-01-25T05:09:49.643Z,20.40
2023-01-25T05:12:20.327Z,21.00
2023-01-25T05:14:55.778Z,21.70
2023-01-25T05:17:24.456Z,20.70
2023-01-25T05:19:52.821Z,20.40
2023-01-25T05:22:23.632Z,20.60
2023-01-25T05:24:54.296Z,21.50
2023-01-25T05:27:23.135Z,21.90
2023-01-25T05:29:58.129Z,19.70
2023-01-25T05:32:45.143Z,21.80
2023-01-25T05:35:15.086Z,24.10
2023-01-25T05:37:44.519Z,21.80
2023-01-25T05:40:17.979Z,21.60
2023-01-25T05:42:54.155Z,21.60
2023-01-25T05:45:22.783Z,21.70
2023-01-25T05:47:56.125Z,20.50
2023-01-25T05:50:26.641Z,22.80
2023-01-25T05:53:15.166Z,22.30
2023-01-25T05:55:43.514Z,21.70
2023-01-25T05:58:15.779Z,20.90
2023-01-25T06:00:44.786Z,22.70
2023-01-25T06:03:16.681Z,23.40
2023-01-25T06:05:45.306Z,24.10
2023-01-25T06:08:13.522Z,22.10
2023-01-25T06:10:51.574Z,24.80
2023-01-25T06:13:22.408Z,25.30
2023-01-25T06:15:56.012Z,22.90
2023-01-25T06:18:50.802Z,25.10
2023-01-25T06:21:31.859Z,22.90
2023-01-25T06:24:00.240Z,24.50
2023-01-25T06:26:28.638Z,25.10
2023-01-25T06:28:57.487Z,24.00
2023-01-25T06:31:26.047Z,24.50
2023-01-25T06:33:54.830Z,24.80
2023-01-25T06:36:24.295Z,22.60
2023-01-25T06:38:53.562Z,24.40
2023-01-25T06:41:23.469Z,25.30
2023-01-25T06:43:52.737Z,25.70
2023-01-25T06:46:21.686Z,24.70
2023-01-25T06:48:50.189Z,33.10
2023-01-25T06:51:19.379Z,30.50
2023-01-25T06:53:48.354Z,27.40
2023-01-25T06:56:21.652Z,27.90
2023-01-25T06:58:50.824Z,27.40
2023-01-25T07:01:22.202Z,26.70
2023-01-25T07:03:52.587Z,26.50
2023-01-25T07:06:21.931Z,24.90
2023-01-25T07:08:50.938Z,24.90
2023-01-25T07:11:19.588Z,22.80
2023-01-25T07:13:48.930Z,28.20
2023-01-25T07:16:20.657Z,25.60
2023-01-25T07:18:49.191Z,24.40
2023-01-25T07:21:26.679Z,25.40
2023-01-25T07:24:02.791Z,24.60
2023-01-25T07:26:32.569Z,24.70
2023-01-25T07:29:02.370Z,23.10
2023-01-25T07:31:31.261Z,22.00
2023-01-25T07:33:59.708Z,23.50
2023-01-25T07:36:28.247Z,21.60
2023-01-25T07:38:58.480Z,23.40
2023-01-25T07:41:27.463Z,23.80
2023-01-25T07:43:56.289Z,24.00
2023-01-25T07:46:41.244Z,26.90
2023-01-25T07:49:10.369Z,28.60
2023-01-25T07:51:38.773Z,27.80
2023-01-25T07:54:07.280Z,28.40
2023-01-25T07:56:38.643Z,27.80
2023-01-25T07:59:10.218Z,28.70
2023-01-25T08:01:40.317Z,29.80
2023-01-25T08:04:09.875Z,29.20
2023-01-25T08:06:39.618Z,30.80
2023-01-25T08:09:13.388Z,31.10
2023-01-25T08:11:42.651Z,30.90
2023-01-25T08:14:14.057Z,30.20
2023-01-25T08:16:42.955Z,29.40
2023-01-25T08:19:11.917Z,28.80
2023-01-25T08:21:40.327Z,27.10
2023-01-25T08:24:09.881Z,27.60
2023-01-25T08:26:38.498Z,28.90
2023-01-25T08:29:07.051Z,29.80
2023-01-25T08:31:44.133Z,27.20
2023-01-25T08:34:12.919Z,26.80
2023-01-25T08:36:41.334Z,27.30
2023-01-25T08:39:11.981Z,28.40
2023-01-25T08:41:40.547Z,29.80
2023-01-25T08:44:09.695Z,31.80
2023-01-25T08:46:41.342Z,30.20
2023-01-25T08:49:12.966Z,33.40
2023-01-25T08:51:41.960Z,30.20
2023-01-25T08:56:44.975Z,31.00
2023-01-25T08:59:16.825Z,29.70
2023-01-25T09:01:45.492Z,29.20
2023-01-25T09:04:13.978Z,29.60
2023-01-25T09:06:42.312Z,29.70
2023-01-25T09:09:13.484Z,27.40
2023-01-25T09:11:42.269Z,30.30
2023-01-25T09:14:12.908Z,29.70
2023-01-25T09:16:41.949Z,30.40
2023-01-25T09:19:10.340Z,34.90
2023-01-25T09:21:42.672Z,36.80
2023-01-25T09:24:18.597Z,36.80
2023-01-25T09:26:55.927Z,32.70
2023-01-25T09:29:39.571Z,32.70
2023-01-25T09:32:10.598Z,31.60
2023-01-25T09:34:51.134Z,36.40
2023-01-25T09:37:19.607Z,35.80
2023-01-25T09:39:48.169Z,44.20
2023-01-25T09:42:37.151Z,38.70
2023-01-25T09:45:14.222Z,36.20
2023-01-25T09:47:56.299Z,34.50
2023-01-25T09:50:35.185Z,34.70
2023-01-25T09:53:27.138Z,33.20
2023-01-25T09:55:59.843Z,32.40
2023-01-25T09:58:43.280Z,36.80
2023-01-25T10:01:38.585Z,32.10
2023-01-25T10:04:26.033Z,37.10
2023-01-25T10:07:01.681Z,33.90
2023-01-25T10:10:11.005Z,42.90
2023-01-25T10:12:40.111Z,43.00
2023-01-25T10:15:21.256Z,39.20
2023-01-25T10:18:08.602Z,36.70
2023-01-25T10:20:53.453Z,37.00
2023-01-25T10:24:00.326Z,35.60
2023-01-25T10:26:33.467Z,33.40
2023-01-25T10:29:23.163Z,35.30
2023-01-25T10:32:10.612Z,37.70
2023-01-25T10:34:56.832Z,34.30
2023-01-25T10:37:31.247Z,32.10
2023-01-25T10:40:22.716Z,28.60
2023-01-25T10:43:01.105Z,27.80
2023-01-25T10:45:30.666Z,28.70
2023-01-25T10:48:06.740Z,23.10
2023-01-25T10:50:46.616Z,21.70
2023-01-25T10:53:34.974Z,22.90
2023-01-25T10:56:09.347Z,23.70
2023-01-25T10:58:45.473Z,21.20
2023-01-25T11:01:25.837Z,22.60
2023-01-25T11:03:55.171Z,18.30
2023-01-25T11:06:39.345Z,18.80
2023-01-25T11:09:23.327Z,19.10
2023-01-25T11:12:00.241Z,20.30
2023-01-25T11:14:33.899Z,44.50
2023-01-25T11:17:06.265Z,21.20
2023-01-25T11:19:38.052Z,21.40
2023-01-25T11:22:18.879Z,19.90
2023-01-25T11:24:47.739Z,20.50
2023-01-25T11:27:16.113Z,23.20
2023-01-25T11:29:47.422Z,23.20
2023-01-25T11:32:25.247Z,22.00
2023-01-25T11:34:55.264Z,19.90
2023-01-25T11:37:42.605Z,20.20
2023-01-25T11:40:19.396Z,18.40
2023-01-25T11:43:03.644Z,18.30
2023-01-25T11:46:01.982Z,19.00
2023-01-25T11:48:47.656Z,19.00
2023-01-25T11:51:33.931Z,16.50
2023-01-25T11:54:09.299Z,18.30
2023-01-25T11:56:53.810Z,17.60
2023-01-25T11:59:28.371Z,19.60
2023-01-25T12:02:16.431Z,20.10
2023-01-25T12:04:57.074Z,19.50
2023-01-25T12:07:53.747Z,19.10
2023-01-25T12:10:34.711Z,19.20
2023-01-25T12:13:12.361Z,17.00
2023-01-25T12:16:02.534Z,19.60
2023-01-25T12:19:01.926Z,16.10
2023-01-25T12:21:52.317Z,16.00
2023-01-25T12:24:44.710Z,17.00
2023-01-25T12:27:36.088Z,17.30
2023-01-25T12:30:33.422Z,17.00
2023-01-25T12:33:15.099Z,18.70
2023-01-25T12:35:54.954Z,18.40
2023-01-25T12:39:03.759Z,18.70
2023-01-25T12:41:40.118Z,19.70
2023-01-25T12:44:21.417Z,19.90
2023-01-25T12:46:52.684Z,18.90
2023-01-25T12:49:37.769Z,16.50
2023-01-25T12:52:15.891Z,16.00
2023-01-25T12:54:47.734Z,10.80
2023-01-25T12:57:20.339Z,14.50
2023-01-25T12:59:59.942Z,16.80
2023-01-25T13:02:34.573Z,14.80
2023-01-25T13:05:30.983Z,16.80
2023-01-25T13:08:30.172Z,18.70
2023-01-25T13:11:32.644Z,18.20
2023-01-25T13:14:31.842Z,23.20
2023-01-25T13:17:36.377Z,36.20
2023-01-25T13:20:40.249Z,31.40
2023-01-25T13:23:47.669Z,29.10
2023-01-25T13:26:22.150Z,23.80
2023-01-25T13:28:55.368Z,19.50
2023-01-25T13:31:55.893Z,19.10
2023-01-25T13:34:42.642Z,16.80
2023-01-25T13:37:20.612Z,18.40
2023-01-25T13:39:57.533Z,18.90
2023-01-25T13:42:37.088Z,25.20
2023-01-25T13:45:18.815Z,24.60
2023-01-25T13:48:13.428Z,26.80
2023-01-25T13:50:52.635Z,24.10
2023-01-25T13:53:25.135Z,23.80
2023-01-25T13:55:56.568Z,28.70
2023-01-25T13:58:30.742Z,28.10
2023-01-25T14:01:12.360Z,26.50
2023-01-25T14:03:45.203Z,28.50
2023-01-25T14:06:20.031Z,28.50
2023-01-25T14:08:50.677Z,25.50
2023-01-25T14:11:26.255Z,26.90
2023-01-25T14:14:01.646Z,27.70
2023-01-25T14:16:32.166Z,27.80
2023-01-25T14:19:23.682Z,28.10
2023-01-25T14:22:31.397Z,32.20
2023-01-25T14:25:07.467Z,39.00
2023-01-25T14:27:41.569Z,29.80
2023-01-25T14:30:18.026Z,26.70
2023-01-25T14:32:47.146Z,24.20
2023-01-25T14:35:42.272Z,31.20
2023-01-25T14:38:25.792Z,37.60
2023-01-25T14:41:02.534Z,37.00
2023-01-25T14:43:31.570Z,33.60
2023-01-25T14:45:59.880Z,28.50
2023-01-25T14:48:41.646Z,25.70
2023-01-25T14:51:13.182Z,23.90
2023-01-25T14:53:46.834Z,26.90
2023-01-25T14:56:25.844Z,29.80
2023-01-25T14:58:59.597Z,40.30
2023-01-25T15:01:40.059Z,33.50
2023-01-25T15:04:13.657Z,35.10
2023-01-25T15:06:51.189Z,31.70
2023-01-25T15:09:31.809Z,33.50
2023-01-25T15:12:27.496Z,32.00
2023-01-25T15:14:58.620Z,31.20
2023-01-25T15:17:41.109Z,32.80
2023-01-25T15:20:41.764Z,34.60
2023-01-25T15:23:26.422Z,38.40
2023-01-25T15:25:57.203Z,31.90
2023-01-25T15:28:28.584Z,33.70
2023-01-25T15:30:59.670Z,37.90
2023-01-25T15:33:30.441Z,34.50
2023-01-25T15:35:59.488Z,33.00
2023-01-25T15:38:27.850Z,33.00
2023-01-25T15:41:01.472Z,36.30
2023-01-25T15:43:29.867Z,34.10
2023-01-25T15:46:00.351Z,33.70
2023-01-25T15:48:43.006Z,27.90
2023-01-25T15:51:13.422Z,24.60
2023-01-25T15:53:41.921Z,23.90
2023-01-25T15:56:18.403Z,23.60
2023-01-25T15:58:55.836Z,22.00
2023-01-25T16:01:27.726Z,25.90
2023-01-25T16:03:57.898Z,24.80
2023-01-25T16:06:42.177Z,26.30
2023-01-25T16:09:21.582Z,23.70
2023-01-25T16:11:56.071Z,22.30
2023-01-25T16:14:30.461Z,27.20
2023-01-25T16:17:02.681Z,28.30
2023-01-25T16:19:32.203Z,44.20
2023-01-25T16:22:00.575Z,36.90
2023-01-25T16:24:28.950Z,32.90
2023-01-25T16:26:59.260Z,33.00
2023-01-25T16:29:27.735Z,39.70
2023-01-25T16:31:56.362Z,47.10
2023-01-25T16:34:24.825Z,52.50
2023-01-25T16:36:53.324Z,50.90
2023-01-25T16:39:24.110Z,45.30
2023-01-25T16:41:52.597Z,52.20
2023-01-25T16:44:20.990Z,56.40
2023-01-25T16:46:50.526Z,59.50
2023-01-25T16:49:27.587Z,48.90
2023-01-25T16:51:57.959Z,56.90
2023-01-25T16:54:27.029Z,47.90
2023-01-25T16:56:55.467Z,41.70
2023-01-25T16:59:24.955Z,39.80
2023-01-25T17:01:53.463Z,36.70
2023-01-25T17:04:21.813Z,35.60
2023-01-25T17:06:53.206Z,40.40
2023-01-25T17:09:24.792Z,40.00
2023-01-25T17:11:55.416Z,41.90
2023-01-25T17:14:23.931Z,35.60
2023-01-25T17:16:53.851Z,28.40
2023-01-25T17:19:23.812Z,36.80
2023-01-25T17:21:52.427Z,37.20
2023-01-25T17:24:21.979Z,30.20
2023-01-25T17:26:51.868Z,29.90
2023-01-25T17:29:21.848Z,28.30
2023-01-25T17:31:51.037Z,26.00
2023-01-25T17:34:19.855Z,26.30
2023-01-25T17:36:50.397Z,26.70
2023-01-25T17:39:20.945Z,24.90
2023-01-25T17:41:51.471Z,28.70
2023-01-25T17:44:22.911Z,30.40
2023-01-25T17:46:51.859Z,31.10
2023-01-25T17:49:22.800Z,29.60
2023-01-25T17:51:53.948Z,32.30
2023-01-25T17:54:22.634Z,33.40
2023-01-25T17:56:51.271Z,34.40
2023-01-25T17:59:20.126Z,41.40
2023-01-25T18:01:48.893Z,53.90
2023-01-25T18:04:17.757Z,31.30
2023-01-25T18:06:46.435Z,31.40
2023-01-25T18:09:15.182Z,28.60
2023-01-25T18:11:43.878Z,27.20
2023-01-25T18:14:17.052Z,27.40
2023-01-25T18:16:45.657Z,28.10
2023-01-25T18:19:14.214Z,26.90
2023-01-25T18:21:43.409Z,28.00
2023-01-25T18:24:15.047Z,29.20
2023-01-25T18:26:43.538Z,30.00
2023-01-25T18:29:15.200Z,26.90
2023-01-25T18:31:43.676Z,30.90
2023-01-25T18:34:12.186Z,29.10
2023-01-25T18:36:40.579Z,30.80
2023-01-25T18:39:09.156Z,29.20
2023-01-25T18:41:37.607Z,26.10
2023-01-25T18:44:06.239Z,29.60
2023-01-25T18:46:34.756Z,28.70
2023-01-25T18:49:03.797Z,27.80
2023-01-25T18:51:32.932Z,30.10
2023-01-25T18:54:01.672Z,34.10
2023-01-25T18:56:31.705Z,31.10
2023-01-25T18:59:00.309Z,33.10
2023-01-25T19:01:32.958Z,31.80
2023-01-25T19:04:01.760Z,31.10
2023-01-25T19:06:30.537Z,30.70
2023-01-25T19:09:00.095Z,39.20
2023-01-25T19:11:28.710Z,44.60
2023-01-25T19:13:58.612Z,42.70
2023-01-25T19:16:27.495Z,36.10
2023-01-25T19:18:56.151Z,33.70
2023-01-25T19:21:27.452Z,35.70
2023-01-25T19:23:56.679Z,31.30
2023-01-25T19:26:26.746Z,35.00
2023-01-25T19:28:56.336Z,31.70
2023-01-25T19:31:27.170Z,56.60
2023-01-25T19:33:58.073Z,33.50
2023-01-25T19:36:28.965Z,99.40
2023-01-25T19:38:57.702Z,63.60
2023-01-25T19:41:29.071Z,44.60
2023-01-25T19:44:00.352Z,32.60
2023-01-25T19:46:34.846Z,51.90
2023-01-25T19:49:08.235Z,33.80
2023-01-25T19:51:41.635Z,27.50
2023-01-25T19:54:15.931Z,30.30
2023-01-25T19:56:50.136Z,34.00
2023-01-25T19:59:25.744Z,27.60
2023-01-25T20:01:54.923Z,26.20
2023-01-25T20:04:25.043Z,24.30
2023-01-25T20:06:53.709Z,23.90
2023-01-25T20:09:28.312Z,24.70
2023-01-25T20:11:57.907Z,22.60
2023-01-25T20:14:26.543Z,22.20
2023-01-25T20:16:55.214Z,23.00
2023-01-25T20:19:23.680Z,25.40
2023-01-25T20:21:52.337Z,21.70
2023-01-25T20:24:20.935Z,22.10
2023-01-25T20:26:49.587Z,20.90
2023-01-25T20:29:19.970Z,18.40
2023-01-25T20:31:48.435Z,38.30
2023-01-25T20:34:20.848Z,20.60
2023-01-25T20:36:51.385Z,18.40
2023-01-25T20:39:21.701Z,16.90
2023-01-25T20:41:53.906Z,15.90
2023-01-25T20:44:22.797Z,17.70
2023-01-25T20:46:52.229Z,16.60
2023-01-25T20:49:20.877Z,14.60
2023-01-25T20:51:49.406Z,15.00
2023-01-25T20:54:18.525Z,13.00
2023-01-25T20:56:48.307Z,21.30
2023-01-25T20:59:18.199Z,15.70
2023-01-25T21:01:47.049Z,17.00
2023-01-25T21:04:15.504Z,18.70
2023-01-25T21:06:44.137Z,15.80
2023-01-25T21:09:12.875Z,18.40
2023-01-25T21:11:41.604Z,14.70
2023-01-25T21:14:10.179Z,16.10
2023-01-25T21:16:39.804Z,15.70
2023-01-25T21:19:08.643Z,16.20
2023-01-25T21:21:39.275Z,13.90
2023-01-25T21:24:15.019Z,15.30
2023-01-25T21:26:43.714Z,12.50
2023-01-25T21:29:12.234Z,12.60
2023-01-25T21:31:54.082Z,12.00
2023-01-25T21:34:23.377Z,11.70
2023-01-25T21:36:51.949Z,12.00
2023-01-25T21:39:26.877Z,15.20
2023-01-25T21:41:55.891Z,12.50
2023-01-25T21:44:43.357Z,13.70
2023-01-25T21:47:29.477Z,13.50
2023-01-25T21:50:21.561Z,13.70
2023-01-25T21:52:49.921Z,15.20
2023-01-25T21:55:19.280Z,15.60
2023-01-25T21:57:49.245Z,15.60
2023-01-25T22:00:18.137Z,12.80
2023-01-25T22:02:46.581Z,13.00
2023-01-25T22:05:15.174Z,12.90
2023-01-25T22:07:43.622Z,13.40
2023-01-25T22:10:12.178Z,13.70
2023-01-25T22:12:40.815Z,13.70
2023-01-25T22:15:09.532Z,12.90
2023-01-25T22:17:37.975Z,15.00
2023-01-25T22:20:08.526Z,12.90
2023-01-25T22:22:37.241Z,13.50
2023-01-25T22:25:06.928Z,13.70
2023-01-25T22:27:49.466Z,12.60
2023-01-25T22:30:17.922Z,11.60
2023-01-25T22:32:46.303Z,12.30
2023-01-25T22:35:14.613Z,12.30
2023-01-25T22:37:43.001Z,11.50
2023-01-25T22:40:12.389Z,11.30
2023-01-25T22:42:42.276Z,10.50
2023-01-25T22:45:10.651Z,12.10
2023-01-25T22:47:38.989Z,11.80
2023-01-25T22:50:08.005Z,12.10
2023-01-25T22:52:36.871Z,12.10
2023-01-25T22:55:05.390Z,11.60
2023-01-25T22:57:33.692Z,12.40
2023-01-25T23:00:02.188Z,12.70
2023-01-25T23:02:30.874Z,11.10
2023-01-25T23:04:59.303Z,11.90
2023-01-25T23:07:27.713Z,12.40
2023-01-25T23:09:56.029Z,10.70
2023-01-25T23:12:24.303Z,12.20
2023-01-25T23:14:54.129Z,11.00
2023-01-25T23:17:42.983Z,10.90
2023-01-25T23:20:12.872Z,10.60
2023-01-25T23:22:41.673Z,11.30
2023-01-25T23:25:12.238Z,10.70
2023-01-25T23:27:41.695Z,11.60
2023-01-25T23:30:10.978Z,10.90
2023-01-25T23:32:49.398Z,11.80
2023-01-25T23:35:20.549Z,11.20
2023-01-25T23:37:49.019Z,11.10
2023-01-25T23:40:17.436Z,11.70
2023-01-25T23:42:45.860Z,11.50
2023-01-25T23:45:14.125Z,10.80
2023-01-25T23:47:42.378Z,11.10
2023-01-25T23:50:11.907Z,10.80
2023-01-25T23:52:40.780Z,12.00
2023-01-25T23:55:09.696Z,11.30
2023-01-25T23:57:38.167Z,9.70
